Time;durP1;ratioP1;P1;durP2;ratioP2;P2;SDS_P1;SDS_P2;PMS_P1;PMS_P2;Temp;Humidity;BMP_temperature;BMP_pressure;BME280_temperature;BME280_humidity;BME280_pressure;Samples;Min_cycle;Max_cycle;Signal;HPM_P1;HPM_P2
2023/04/16 00:00:34;;;;;;;0.22;0.10;;;;;;;2.74;31.86;101247.50;4927649;29;20092;-68
2023/04/16 00:03:01;;;;;;;0.10;0.10;;;;;;;2.74;31.73;101261.00;4927553;29;20624;-68
2023/04/16 00:05:27;;;;;;;0.10;0.10;;;;;;;2.69;31.99;101260.72;4927500;29;20075;-68
2023/04/16 00:07:53;;;;;;;0.10;0.10;;;;;;;2.69;32.08;101258.00;4926607;29;20067;-68
2023/04/16 00:10:19;;;;;;;0.10;0.10;;;;;;;2.67;32.14;101270.88;4926914;28;20095;-68
2023/04/16 00:12:47;;;;;;;0.10;0.10;;;;;;;2.64;32.27;101268.53;4938239;29;20531;-69
2023/04/16 00:15:13;;;;;;;0.10;0.10;;;;;;;2.52;32.53;101260.91;4929366;29;20060;-68
2023/04/16 00:17:39;;;;;;;0.13;0.13;;;;;;;2.59;32.51;101269.09;4929078;29;20051;-68
2023/04/16 00:20:07;;;;;;;0.20;0.20;;;;;;;2.58;32.50;101262.03;4929318;29;20420;-68
2023/04/16 00:22:34;;;;;;;0.10;0.10;;;;;;;2.49;32.68;101263.13;4930678;29;20055;-68
2023/04/16 00:25:00;;;;;;;0.10;0.10;;;;;;;2.49;33.07;101263.13;4928130;29;20142;-68
2023/04/16 00:27:26;;;;;;;0.10;0.10;;;;;;;2.45;32.99;101267.22;4925788;29;20043;-68
2023/04/16 00:29:54;;;;;;;0.10;0.10;;;;;;;2.41;33.32;101266.75;4928413;29;20059;-68
2023/04/16 00:32:20;;;;;;;0.10;0.10;;;;;;;2.38;33.29;101267.97;4911774;29;20071;-68
2023/04/16 00:34:47;;;;;;;0.10;0.10;;;;;;;2.33;33.32;101267.66;4928552;29;20082;-68
2023/04/16 00:37:13;;;;;;;0.10;0.10;;;;;;;2.30;33.46;101276.13;4925343;29;20466;-68
2023/04/16 00:39:39;;;;;;;0.10;0.10;;;;;;;2.26;33.38;101273.00;4929206;29;20050;-68
2023/04/16 00:42:05;;;;;;;0.10;0.10;;;;;;;2.23;33.58;101269.81;4929938;29;20432;-68
2023/04/16 00:44:34;;;;;;;0.10;0.10;;;;;;;2.19;33.67;101268.50;4928072;29;20107;-68
2023/04/16 00:47:02;;;;;;;0.10;0.10;;;;;;;2.16;33.72;101267.00;4928873;29;20068;-68
2023/04/16 00:49:30;;;;;;;0.10;0.10;;;;;;;2.16;33.87;101274.25;4929386;29;20051;-68
2023/04/16 00:51:56;;;;;;;0.10;0.10;;;;;;;2.09;33.82;101264.19;4933072;29;20051;-68
2023/04/16 00:54:24;;;;;;;0.10;0.10;;;;;;;2.08;33.88;101272.47;4931724;29;20051;-68
2023/04/16 00:56:50;;;;;;;0.10;0.10;;;;;;;2.05;34.24;101273.69;4932814;29;20062;-68
2023/04/16 00:59:17;;;;;;;0.10;0.10;;;;;;;2.04;34.25;101269.31;4931174;29;20423;-68
2023/04/16 01:01:43;;;;;;;0.10;0.10;;;;;;;2.01;34.13;101264.25;4930909;29;20435;-68
2023/04/16 01:04:11;;;;;;;0.10;0.10;;;;;;;1.98;34.25;101261.94;4911859;29;20144;-68
2023/04/16 01:06:37;;;;;;;0.17;0.17;;;;;;;1.96;34.28;101267.53;4900645;29;20075;-68
2023/04/16 01:09:04;;;;;;;0.13;0.10;;;;;;;1.93;34.17;101262.47;4930845;29;20056;-70
2023/04/16 01:11:30;;;;;;;0.10;0.10;;;;;;;1.95;34.11;101259.59;4933071;29;20059;-68
2023/04/16 01:13:57;;;;;;;0.10;0.10;;;;;;;1.90;34.30;101262.84;4929484;29;20078;-68
2023/04/16 01:16:23;;;;;;;0.10;0.10;;;;;;;1.88;34.19;101258.66;4935199;29;20052;-68
2023/04/16 01:18:49;;;;;;;0.22;0.13;;;;;;;1.79;34.60;101258.72;4931466;29;20075;-68
2023/04/16 01:21:17;;;;;;;0.10;0.10;;;;;;;1.76;34.50;101261.78;4929935;29;20056;-68
2023/04/16 01:23:43;;;;;;;0.10;0.10;;;;;;;1.73;34.64;101253.19;4930074;29;20138;-68
2023/04/16 01:26:09;;;;;;;0.10;0.10;;;;;;;1.76;34.62;101266.31;4931141;29;20055;-68
2023/04/16 01:28:35;;;;;;;0.35;0.10;;;;;;;1.74;34.89;101257.56;4930281;29;20055;-68
2023/04/16 01:31:02;;;;;;;0.10;0.10;;;;;;;1.76;34.97;101266.31;4935870;29;20484;-68
2023/04/16 01:33:48;;;;;;;0.00;0.00;;;;;;;1.73;34.98;101262.16;4904460;29;20047;-68
2023/04/16 01:36:14;;;;;;;0.10;0.10;;;;;;;1.73;34.96;101266.69;4930867;29;20051;-68
2023/04/16 01:38:42;;;;;;;0.10;0.10;;;;;;;1.74;34.91;101268.34;4930544;29;20052;-68
2023/04/16 01:41:09;;;;;;;0.10;0.10;;;;;;;1.74;35.07;101261.13;4933024;29;20043;-68
2023/04/16 01:43:35;;;;;;;0.10;0.10;;;;;;;1.76;35.06;101266.31;4931868;29;20056;-68
2023/04/16 01:46:12;;;;;;;0.10;0.10;;;;;;;1.78;34.91;101269.66;4931143;29;20051;-68
2023/04/16 01:48:38;;;;;;;0.10;0.10;;;;;;;1.78;34.79;101261.56;4930418;29;20051;-68
2023/04/16 01:51:05;;;;;;;0.10;0.10;;;;;;;1.79;34.86;101265.94;4928700;29;20063;-68
2023/04/16 01:53:31;;;;;;;0.10;0.10;;;;;;;1.80;34.83;101259.56;4927795;29;20067;-68
2023/04/16 01:55:58;;;;;;;0.10;0.10;;;;;;;1.63;35.00;101237.25;4931506;29;20094;-69
2023/04/16 01:58:26;;;;;;;0.10;0.10;;;;;;;1.80;34.98;101259.56;4930169;29;20070;-69
2023/04/16 02:00:52;;;;;;;0.10;0.10;;;;;;;1.77;35.04;101257.19;4913149;29;20130;-68
2023/04/16 02:03:19;;;;;;;0.20;0.20;;;;;;;1.77;35.15;101266.16;4928167;29;20056;-68
2023/04/16 02:05:46;;;;;;;0.10;0.10;;;;;;;1.77;35.16;101268.00;4912536;29;20051;-69
2023/04/16 02:08:12;;;;;;;0.23;0.20;;;;;;;1.76;35.13;101263.63;4930954;29;20059;-68
2023/04/16 02:10:38;;;;;;;0.10;0.10;;;;;;;1.73;35.39;101274.78;4931085;29;20362;-67
2023/04/16 02:13:06;;;;;;;0.10;0.10;;;;;;;1.69;35.34;101271.59;4913917;29;20059;-67
2023/04/16 02:15:32;;;;;;;;;;;;;;;1.65;35.60;101263.03;4912928;29;20056;-68
2023/04/16 02:17:58;;;;;;;0.10;0.10;;;;;;;1.62;35.29;101274.16;4913853;29;20412;-67
2023/04/16 02:20:25;;;;;;;0.10;0.10;;;;;;;1.57;35.53;101270.34;4926702;29;20054;-67
2023/04/16 02:22:54;;;;;;;0.15;0.15;;;;;;;1.52;35.64;101262.78;4928965;29;20052;-67
2023/04/16 02:25:23;;;;;;;0.10;0.10;;;;;;;1.50;35.66;101270.22;4945350;29;20051;-67
2023/04/16 02:27:51;;;;;;;0.10;0.10;;;;;;;1.48;35.71;101270.38;4931295;29;20047;-67
2023/04/16 02:30:44;;;;;;;0.10;0.10;;;;;;;1.45;35.78;101270.75;4944902;29;20047;-67
2023/04/16 02:33:12;;;;;;;0.20;0.20;;;;;;;1.47;35.80;101266.03;4931923;29;20054;-67
2023/04/16 02:35:47;;;;;;;0.10;0.10;;;;;;;1.46;35.84;101258.09;4933231;29;20039;-67
2023/04/16 02:38:13;;;;;;;0.17;0.17;;;;;;;1.46;35.94;101269.72;4946602;29;20043;-67
2023/04/16 02:40:40;;;;;;;0.10;0.10;;;;;;;1.48;35.93;101267.69;4950624;29;20043;-67
2023/04/16 02:43:06;;;;;;;0.10;0.10;;;;;;;1.47;35.98;101265.16;4949141;29;20051;-67
2023/04/16 02:45:33;;;;;;;0.10;0.10;;;;;;;1.45;36.00;101273.44;4916283;29;20055;-67
2023/04/16 02:48:00;;;;;;;0.15;0.15;;;;;;;1.42;36.32;101271.94;4933754;29;20059;-67
2023/04/16 02:50:27;;;;;;;0.10;0.10;;;;;;;1.41;36.28;101278.34;4930877;29;20098;-67
2023/04/16 02:52:53;;;;;;;0.10;0.10;;;;;;;1.42;36.39;101276.50;4932744;29;20078;-67
2023/04/16 02:55:19;;;;;;;0.10;0.10;;;;;;;1.42;36.34;101284.59;4930611;29;20094;-67
2023/04/16 02:57:46;;;;;;;0.43;0.20;;;;;;;1.42;36.38;101284.59;4948091;29;20110;-67
2023/04/16 03:00:12;;;;;;;0.20;0.20;;;;;;;1.45;36.16;101275.28;4947620;29;20055;-67
2023/04/16 03:02:38;;;;;;;0.10;0.10;;;;;;;1.49;36.23;101287.41;4944705;29;20059;-67
2023/04/16 03:05:07;;;;;;;0.35;0.10;;;;;;;1.48;36.05;101283.88;4933422;29;20051;-68
2023/04/16 03:07:34;;;;;;;0.10;0.10;;;;;;;1.48;36.20;101283.03;4950815;29;20047;-68
2023/04/16 03:10:00;;;;;;;0.30;0.30;;;;;;;1.47;36.29;101282.19;4932716;29;20051;-68
2023/04/16 03:12:26;;;;;;;0.10;0.10;;;;;;;1.47;36.23;101282.19;4930454;29;20074;-68
2023/04/16 03:14:52;;;;;;;0.13;0.13;;;;;;;1.50;36.38;101276.44;4917738;29;20043;-68
2023/04/16 03:17:18;;;;;;;0.20;0.20;;;;;;;1.58;36.35;101285.50;4946408;29;20514;-69
2023/04/16 03:19:44;;;;;;;0.20;0.20;;;;;;;1.57;36.14;101284.66;4932110;29;20055;-69
2023/04/16 03:22:13;;;;;;;0.27;0.13;;;;;;;1.58;36.11;101278.25;4948102;29;20110;-69
2023/04/16 03:24:38;;;;;;;;;;;;;;;1.62;36.25;101287.66;4931594;29;20063;-68
2023/04/16 03:27:05;;;;;;;0.17;0.17;;;;;;;1.67;36.12;101287.13;4930270;29;19933;-68
2023/04/16 03:29:31;;;;;;;0.10;0.10;;;;;;;1.77;36.11;101290.44;4925857;29;20058;-69
2023/04/16 03:31:58;;;;;;;0.10;0.10;;;;;;;1.83;36.22;101289.69;4906778;29;20070;-68
2023/04/16 03:34:25;;;;;;;0.20;0.20;;;;;;;1.83;36.25;101292.38;4912569;29;20055;-68
2023/04/16 03:36:51;;;;;;;0.15;0.15;;;;;;;1.84;36.06;101285.97;4931476;29;20047;-68
2023/04/16 03:39:19;;;;;;;0.20;0.20;;;;;;;1.87;36.17;101282.09;4931019;29;20133;-68
2023/04/16 03:41:45;;;;;;;0.10;0.10;;;;;;;1.90;36.22;101283.59;4929643;29;20047;-68
2023/04/16 03:44:12;;;;;;;0.10;0.10;;;;;;;1.94;36.07;101284.91;4929724;29;20087;-68
2023/04/16 03:46:38;;;;;;;0.20;0.20;;;;;;;2.00;35.94;101278.78;4930805;29;20240;-68
2023/04/16 03:49:04;;;;;;;0.15;0.15;;;;;;;2.01;35.91;101282.31;4948545;29;20047;-68
2023/04/16 03:51:30;;;;;;;0.20;0.20;;;;;;;2.06;36.04;101290.69;4931174;29;20458;-67
2023/04/16 03:53:57;;;;;;;0.10;0.10;;;;;;;2.15;36.01;101294.16;4929542;29;20055;-67
2023/04/16 03:56:27;;;;;;;0.10;0.10;;;;;;;2.21;35.86;101294.28;4944185;29;20573;-67
2023/04/16 03:58:53;;;;;;;0.38;0.30;;;;;;;2.30;35.61;101296.91;4912070;29;20057;-67
2023/04/16 04:01:20;;;;;;;0.30;0.20;;;;;;;2.39;35.73;101290.41;4934992;29;20059;-67
2023/04/16 04:03:46;;;;;;;0.22;0.17;;;;;;;2.33;35.62;101270.38;4931616;29;20434;-67
2023/04/16 04:06:13;;;;;;;0.20;0.20;;;;;;;2.54;35.68;101288.56;4947707;29;20055;-67
2023/04/16 04:08:39;;;;;;;0.20;0.20;;;;;;;2.58;35.51;101289.03;4928962;29;20558;-67
2023/04/16 04:11:05;;;;;;;0.20;0.20;;;;;;;2.65;35.57;101297.22;4945816;29;20130;-67
2023/04/16 04:13:35;;;;;;;0.20;0.20;;;;;;;2.75;35.44;101294.25;4930377;29;20055;-68
2023/04/16 04:16:01;;;;;;;0.20;0.20;;;;;;;2.88;35.31;101290.88;4947781;29;20051;-67
2023/04/16 04:18:28;;;;;;;0.20;0.20;;;;;;;3.01;34.97;101291.06;4912236;29;20047;-67
2023/04/16 04:20:54;;;;;;;0.20;0.20;;;;;;;3.16;34.68;101299.16;4928749;29;20192;-68
2023/04/16 04:23:24;;;;;;;0.20;0.20;;;;;;;3.32;34.36;101298.09;4930246;29;20079;-67
2023/04/16 04:25:50;;;;;;;0.20;0.20;;;;;;;3.48;34.23;101298.91;4930197;29;20047;-67
2023/04/16 04:28:16;;;;;;;0.20;0.20;;;;;;;3.62;34.03;101289.91;4920485;29;20518;-68
2023/04/16 04:30:44;;;;;;;0.20;0.20;;;;;;;3.74;33.80;101290.22;4914724;29;20347;-68
2023/04/16 04:33:09;;;;;;;;;;;;;;;3.81;33.90;101285.72;4926709;29;20052;-68
2023/04/16 04:35:37;;;;;;;0.20;0.20;;;;;;;3.91;33.59;101281.88;4925214;29;19926;-68
2023/04/16 04:38:04;;;;;;;0.20;0.20;;;;;;;4.04;33.25;101287.38;4927667;29;20070;-67
2023/04/16 04:40:30;;;;;;;0.20;0.20;;;;;;;4.08;32.99;101277.00;4924757;29;20099;-68
2023/04/16 04:42:56;;;;;;;0.20;0.20;;;;;;;4.17;32.95;101278.56;4926127;29;20075;-66
2023/04/16 04:45:26;;;;;;;0.20;0.20;;;;;;;4.28;32.53;101282.59;4926639;29;20052;-67
2023/04/16 04:47:55;;;;;;;0.30;0.30;;;;;;;4.42;32.46;101282.69;4927373;29;20468;-66
2023/04/16 04:50:21;;;;;;;0.20;0.20;;;;;;;4.53;32.27;101268.63;4927835;29;20079;-67
2023/04/16 04:52:47;;;;;;;0.20;0.20;;;;;;;4.71;32.01;101288.94;4923073;29;20515;-67
2023/04/16 04:55:14;;;;;;;0.35;0.20;;;;;;;4.81;31.42;101273.13;4928788;29;20744;-67
2023/04/16 04:57:41;;;;;;;;;;;;;;;4.84;31.14;101280.88;4928184;29;20051;-67
2023/04/16 05:00:08;;;;;;;0.22;0.22;;;;;;;4.87;30.26;101275.06;4926307;29;19993;-67
2023/04/16 05:02:43;;;;;;;0.20;0.20;;;;;;;4.92;30.18;101275.28;4925369;29;20472;-67
2023/04/16 05:05:10;;;;;;;0.20;0.20;;;;;;;5.05;29.87;101284.53;4924738;29;20051;-67
2023/04/16 05:07:36;;;;;;;0.20;0.20;;;;;;;5.04;29.39;101283.66;4926301;29;20427;-66
2023/04/16 05:10:03;;;;;;;0.10;0.10;;;;;;;5.10;29.73;101273.91;4926625;29;20860;-67
2023/04/16 05:12:30;;;;;;;0.20;0.20;;;;;;;5.25;29.50;101273.75;4905805;29;20417;-67
2023/04/16 05:14:57;;;;;;;0.20;0.20;;;;;;;5.31;29.59;101280.25;4928697;29;20044;-67
2023/04/16 05:17:23;;;;;;;0.10;0.10;;;;;;;5.44;29.51;101279.44;4932948;29;20082;-67
2023/04/16 05:19:49;;;;;;;0.30;0.20;;;;;;;5.45;29.08;101273.78;4926098;29;20048;-67
2023/04/16 05:22:17;;;;;;;0.20;0.20;;;;;;;5.43;29.40;101278.59;4926613;29;20048;-67
2023/04/16 05:24:44;;;;;;;0.20;0.20;;;;;;;5.41;29.34;101285.28;4926968;29;20059;-67
2023/04/16 05:27:10;;;;;;;0.20;0.20;;;;;;;5.42;29.59;101285.06;4928374;29;20048;-67
2023/04/16 05:29:37;;;;;;;0.20;0.20;;;;;;;5.36;29.19;101275.03;4911752;29;20048;-66
2023/04/16 05:32:03;;;;;;;0.17;0.17;;;;;;;5.30;29.44;101273.97;4910731;29;20043;-67
2023/04/16 05:34:29;;;;;;;0.20;0.20;;;;;;;5.22;29.60;101274.13;4928611;29;20515;-67
2023/04/16 05:36:55;;;;;;;0.20;0.20;;;;;;;5.18;29.45;101276.44;4912071;29;20759;-67
2023/04/16 05:39:23;;;;;;;0.20;0.20;;;;;;;5.18;29.64;101271.03;4929657;29;20053;-66
2023/04/16 05:41:49;;;;;;;0.28;0.28;;;;;;;5.20;29.78;101277.06;4930417;29;20055;-67
2023/04/16 05:44:15;;;;;;;0.20;0.20;;;;;;;5.23;29.66;101270.41;4930612;29;20054;-67
2023/04/16 05:46:41;;;;;;;0.10;0.10;;;;;;;5.30;29.63;101273.13;4929908;29;20054;-67
2023/04/16 05:49:07;;;;;;;0.25;0.25;;;;;;;5.40;29.50;101276.28;4929355;29;20071;-67
2023/04/16 05:51:34;;;;;;;0.20;0.20;;;;;;;5.48;29.29;101270.69;4927264;29;20055;-67
2023/04/16 05:54:00;;;;;;;0.20;0.20;;;;;;;5.74;28.99;101274.50;4929032;29;20567;-67
2023/04/16 05:56:28;;;;;;;0.20;0.20;;;;;;;5.93;29.00;101282.88;4930767;29;20082;-67
2023/04/16 05:58:54;;;;;;;0.10;0.10;;;;;;;6.27;28.51;101266.63;4930447;29;20159;-67
2023/04/16 06:01:20;;;;;;;0.13;0.13;;;;;;;6.57;28.00;101277.88;4931363;29;20054;-67
2023/04/16 06:03:46;;;;;;;0.20;0.20;;;;;;;6.70;28.18;101274.28;4932332;29;20056;-67
2023/04/16 06:06:13;;;;;;;0.20;0.20;;;;;;;6.74;27.78;101271.97;4930398;29;20586;-67
2023/04/16 06:08:39;;;;;;;0.30;0.30;;;;;;;6.74;27.66;101263.81;4931433;29;20048;-67
2023/04/16 06:11:05;;;;;;;0.20;0.20;;;;;;;7.01;27.33;101259.13;4946687;29;20047;-67
2023/04/16 06:13:33;;;;;;;0.15;0.15;;;;;;;7.22;27.13;101270.75;4944573;29;20526;-67
2023/04/16 06:15:59;;;;;;;;;;;;;;;7.38;26.82;101269.44;4945759;28;20102;-67
2023/04/16 06:18:25;;;;;;;0.20;0.20;;;;;;;7.50;26.15;101273.13;4951335;29;19927;-67
2023/04/16 06:20:51;;;;;;;0.28;0.28;;;;;;;7.52;26.29;101264.72;4941172;29;20079;-69
2023/04/16 06:23:18;;;;;;;0.30;0.30;;;;;;;7.63;25.99;101274.09;4931320;29;20507;-68
2023/04/16 06:25:44;;;;;;;0.20;0.20;;;;;;;7.85;25.63;101262.84;4929637;29;20074;-67
2023/04/16 06:28:10;;;;;;;0.20;0.20;;;;;;;7.97;25.10;101263.81;4940812;29;20042;-67
2023/04/16 06:30:38;;;;;;;0.30;0.30;;;;;;;8.12;24.76;101262.63;4927431;29;20099;-68
2023/04/16 06:33:05;;;;;;;0.20;0.20;;;;;;;8.49;24.07;101254.56;4930085;29;20126;-69
2023/04/16 06:35:31;;;;;;;0.20;0.20;;;;;;;8.81;23.80;101257.19;4943458;28;20047;-68
2023/04/16 06:37:57;;;;;;;0.20;0.20;;;;;;;9.31;23.47;101263.50;4942904;29;20142;-69
2023/04/16 06:40:24;;;;;;;0.30;0.30;;;;;;;9.55;22.92;101255.41;4932468;28;20051;-68
2023/04/16 06:42:50;;;;;;;0.30;0.30;;;;;;;9.64;22.46;101257.56;4585876;29;10000103;-68
2023/04/16 06:45:16;;;;;;;0.20;0.20;;;;;;;9.58;22.46;101257.66;4937883;29;20051;-69
2023/04/16 06:47:44;;;;;;;0.20;0.20;;;;;;;9.55;22.39;101250.75;4936443;28;20103;-69
2023/04/16 06:50:10;;;;;;;0.20;0.20;;;;;;;9.46;22.52;101260.38;4934097;29;20200;-68
2023/04/16 06:52:36;;;;;;;0.20;0.20;;;;;;;9.60;22.60;101258.25;4923735;29;20043;-69
2023/04/16 06:55:03;;;;;;;0.20;0.20;;;;;;;9.78;22.93;101249.19;4939681;29;20079;-69
2023/04/16 06:57:29;;;;;;;0.30;0.30;;;;;;;9.77;22.55;101251.06;4922962;29;20095;-69
2023/04/16 06:59:56;;;;;;;0.28;0.28;;;;;;;9.96;22.62;101250.97;4928049;29;20107;-69
2023/04/16 07:02:23;;;;;;;0.30;0.30;;;;;;;10.20;22.16;101251.84;4940048;29;20039;-69
2023/04/16 07:04:51;;;;;;;0.30;0.30;;;;;;;10.29;21.98;101246.84;4935625;29;20047;-69
2023/04/16 07:07:17;;;;;;;0.30;0.30;;;;;;;10.54;21.29;101240.34;4933595;29;20106;-69
2023/04/16 07:09:43;;;;;;;0.30;0.30;;;;;;;10.75;21.13;101240.78;4938314;28;20051;-69
2023/04/16 07:12:10;;;;;;;0.35;0.35;;;;;;;11.21;21.01;101235.41;4937828;29;20047;-69
2023/04/16 07:14:36;;;;;;;0.40;0.40;;;;;;;11.71;20.54;101242.09;4936177;29;20051;-69
2023/04/16 07:17:02;;;;;;;0.30;0.30;;;;;;;11.61;19.10;101239.97;4935633;29;20053;-69
2023/04/16 07:19:31;;;;;;;0.30;0.30;;;;;;;11.42;19.78;101244.88;4940154;28;20095;-69
2023/04/16 07:21:59;;;;;;;0.30;0.30;;;;;;;11.25;19.06;101239.31;4911126;29;20470;-69
2023/04/16 07:24:25;;;;;;;0.30;0.30;;;;;;;11.09;18.98;101213.56;4904743;29;20047;-69
2023/04/16 07:26:51;;;;;;;0.30;0.30;;;;;;;11.22;18.98;101226.13;4934948;29;20133;-69
2023/04/16 07:29:18;;;;;;;0.30;0.30;;;;;;;11.53;18.56;101234.91;4940313;29;20090;-68
2023/04/16 07:31:44;;;;;;;0.20;0.20;;;;;;;11.65;18.17;101226.63;4948743;29;20569;-68
2023/04/16 07:34:11;;;;;;;0.40;0.40;;;;;;;11.64;17.78;101227.72;4915270;29;20051;-68
2023/04/16 07:36:37;;;;;;;0.30;0.30;;;;;;;11.39;17.32;101228.09;4948328;29;20051;-68
2023/04/16 07:39:05;;;;;;;0.30;0.30;;;;;;;11.38;17.48;101227.25;4932263;29;20047;-69
2023/04/16 07:41:31;;;;;;;;;;;;;;;11.35;17.67;101230.47;4951570;29;20150;-69
2023/04/16 07:43:57;;;;;;;0.20;0.20;;;;;;;11.17;17.78;101228.78;4949950;29;20025;-69
2023/04/16 07:46:23;;;;;;;0.20;0.20;;;;;;;11.03;18.07;101239.16;4949740;29;20541;-69
2023/04/16 07:48:49;;;;;;;0.30;0.30;;;;;;;11.09;18.36;101230.00;4948601;29;20043;-69
2023/04/16 07:51:16;;;;;;;0.20;0.20;;;;;;;11.39;17.84;101234.38;4950963;29;20102;-69
2023/04/16 07:53:42;;;;;;;0.30;0.30;;;;;;;11.57;17.90;101235.28;4950878;29;20142;-69
2023/04/16 07:56:10;;;;;;;0.38;0.30;;;;;;;11.44;17.17;101234.50;4915088;29;20062;-69
2023/04/16 07:58:36;;;;;;;;;;;;;;;11.09;17.19;101229.16;4929895;29;20162;-70
2023/04/16 08:01:02;;;;;;;0.30;0.30;;;;;;;11.03;17.71;101220.00;4948752;29;20465;-67
2023/04/16 08:03:28;;;;;;;0.30;0.30;;;;;;;11.37;17.38;101220.09;4949370;29;20062;-67
2023/04/16 08:05:54;;;;;;;0.30;0.30;;;;;;;11.73;17.24;101215.28;4944951;29;20196;-67
2023/04/16 08:08:21;;;;;;;0.30;0.30;;;;;;;12.04;16.89;101209.47;4934815;29;20051;-67
2023/04/16 08:10:47;;;;;;;0.30;0.30;;;;;;;12.27;16.42;101211.19;4937907;29;20134;-67
2023/04/16 08:13:15;;;;;;;0.30;0.30;;;;;;;12.65;16.03;101203.22;4939491;29;20063;-66
2023/04/16 08:15:41;;;;;;;0.30;0.30;;;;;;;13.41;15.52;101198.84;4941538;29;20047;-66
2023/04/16 08:18:11;;;;;;;0.30;0.30;;;;;;;13.90;15.01;101203.44;4940442;29;20046;-67
2023/04/16 08:20:38;;;;;;;0.30;0.30;;;;;;;14.08;14.88;101203.28;4926798;29;20138;-68
2023/04/16 08:23:04;;;;;;;0.30;0.30;;;;;;;14.29;14.87;101196.81;4930220;29;20446;-68
2023/04/16 08:25:30;;;;;;;0.57;0.40;;;;;;;14.72;14.63;101194.03;4947710;29;20051;-69
2023/04/16 08:27:57;;;;;;;0.30;0.30;;;;;;;15.06;14.31;101189.19;4929668;29;20070;-69
2023/04/16 08:30:24;;;;;;;0.30;0.30;;;;;;;15.11;13.81;101179.03;4930015;29;20075;-69
2023/04/16 08:32:51;;;;;;;0.30;0.30;;;;;;;14.93;13.98;101194.13;4948939;29;20047;-69
2023/04/16 08:35:17;;;;;;;0.30;0.30;;;;;;;14.39;13.96;101181.47;4946289;29;20051;-67
2023/04/16 08:37:43;;;;;;;0.30;0.30;;;;;;;14.00;14.38;101180.69;4913447;29;20047;-67
2023/04/16 08:40:10;;;;;;;0.30;0.30;;;;;;;13.76;14.44;101182.97;4947415;29;20150;-67
2023/04/16 08:42:43;;;;;;;0.30;0.30;;;;;;;13.71;14.53;101178.25;4947729;29;20055;-67
2023/04/16 08:45:16;;;;;;;0.30;0.30;;;;;;;13.57;14.33;101179.78;4944328;29;20061;-68
2023/04/16 08:47:46;;;;;;;0.30;0.30;;;;;;;13.37;14.75;101178.47;4945119;29;20039;-68
2023/04/16 08:50:14;;;;;;;0.30;0.30;;;;;;;13.68;14.76;101170.53;4945916;29;20059;-69
2023/04/16 08:52:45;;;;;;;0.30;0.30;;;;;;;14.12;14.25;101182.41;4944739;29;20051;-69
2023/04/16 08:55:13;;;;;;;0.40;0.40;;;;;;;14.95;13.54;101174.56;4944533;29;20056;-69
2023/04/16 08:57:52;;;;;;;0.57;0.40;;;;;;;15.68;13.11;101170.81;4930359;29;20050;-70
2023/04/16 09:00:19;;;;;;;0.40;0.40;;;;;;;16.51;12.61;101175.41;4946533;29;20051;-70
2023/04/16 09:02:51;;;;;;;0.40;0.40;;;;;;;17.17;11.93;101150.50;4750692;28;10000677;-70
2023/04/16 09:05:24;;;;;;;0.40;0.40;;;;;;;17.50;12.13;101150.84;4964188;28;20613;-70
2023/04/16 09:07:52;;;;;;;0.40;0.40;;;;;;;17.72;11.78;101144.84;4963434;28;20054;-68
2023/04/16 09:10:19;;;;;;;0.40;0.40;;;;;;;17.81;12.18;101153.34;4966550;28;20054;-67
2023/04/16 09:12:46;;;;;;;0.40;0.40;;;;;;;17.41;11.50;101147.88;4968615;28;20129;-69
2023/04/16 09:15:13;;;;;;;0.40;0.40;;;;;;;17.12;11.99;101151.38;4964464;28;20155;-69
2023/04/16 09:17:39;;;;;;;0.57;0.40;;;;;;;17.17;12.09;101167.06;4967164;28;20047;-70
2023/04/16 09:20:09;;;;;;;0.50;0.50;;;;;;;16.43;12.58;101163.81;4949519;28;20871;-70
2023/04/16 09:22:36;;;;;;;0.50;0.50;;;;;;;16.06;12.90;101151.25;4950410;28;20062;-70
2023/04/16 09:25:02;;;;;;;0.50;0.50;;;;;;;16.08;12.89;101150.94;4948778;28;20046;-70
2023/04/16 09:27:30;;;;;;;0.47;0.47;;;;;;;16.02;12.82;101153.72;4963639;28;20057;-70
2023/04/16 09:29:57;;;;;;;0.40;0.40;;;;;;;15.29;13.41;101149.28;4965723;28;20536;-70
2023/04/16 09:32:26;;;;;;;0.40;0.40;;;;;;;15.24;13.71;101146.53;4948686;28;20154;-70
2023/04/16 09:34:57;;;;;;;0.40;0.40;;;;;;;15.94;13.55;101143.25;4948776;28;20060;-70
2023/04/16 09:37:25;;;;;;;0.50;0.50;;;;;;;16.85;12.98;101144.31;4969839;28;20043;-70
2023/04/16 09:39:53;;;;;;;0.40;0.40;;;;;;;17.37;12.42;101152.28;4970628;28;20133;-69
2023/04/16 09:42:21;;;;;;;0.40;0.40;;;;;;;17.14;12.54;101144.44;4934807;28;20137;-69
2023/04/16 09:44:48;;;;;;;0.75;0.50;;;;;;;16.91;12.65;101136.84;4951186;28;20070;-69
2023/04/16 09:47:14;;;;;;;;;;;;;;;17.01;12.57;101139.53;4969643;28;20469;-70
2023/04/16 09:49:41;;;;;;;0.50;0.50;;;;;;;17.46;12.64;101138.69;4969682;28;19926;-70
2023/04/16 09:52:13;;;;;;;0.50;0.50;;;;;;;17.51;12.27;101144.19;4955147;28;20055;-69
2023/04/16 09:54:45;;;;;;;0.47;0.47;;;;;;;16.55;13.12;101135.06;4971682;28;20039;-70
2023/04/16 09:57:11;;;;;;;0.50;0.50;;;;;;;16.35;13.34;101130.44;4967468;28;20530;-69
2023/04/16 09:59:38;;;;;;;0.50;0.50;;;;;;;16.78;12.92;101133.59;4949338;28;20051;-70
2023/04/16 10:02:07;;;;;;;0.60;0.60;;;;;;;17.08;12.69;101125.41;4968888;28;20141;-70
2023/04/16 10:04:45;;;;;;;0.52;0.52;;;;;;;16.64;12.84;101105.78;4946098;28;20582;-67
2023/04/16 10:07:12;;;;;;;0.60;0.60;;;;;;;16.65;12.96;101139.72;4942063;28;20434;-67
2023/04/16 10:09:38;;;;;;;0.50;0.50;;;;;;;17.24;12.58;101126.16;4937817;28;20527;-67
2023/04/16 10:12:06;;;;;;;0.50;0.50;;;;;;;16.81;12.76;101127.47;4958535;28;20071;-68
2023/04/16 10:14:32;;;;;;;0.50;0.50;;;;;;;16.87;12.74;101136.56;4944079;28;20055;-68
2023/04/16 10:16:59;;;;;;;0.50;0.50;;;;;;;17.22;12.55;101131.94;4959475;28;20043;-68
2023/04/16 10:19:26;;;;;;;0.60;0.60;;;;;;;17.14;12.82;101122.34;4943076;28;20074;-68
2023/04/16 10:21:54;;;;;;;0.70;0.70;;;;;;;17.39;12.55;101120.50;4946345;28;20055;-67
2023/04/16 10:24:21;;;;;;;0.70;0.70;;;;;;;18.09;12.19;101120.41;4969567;28;20050;-68
2023/04/16 10:26:50;;;;;;;0.60;0.60;;;;;;;18.87;11.86;101114.75;4968491;28;20054;-68
2023/04/16 10:29:19;;;;;;;0.80;0.80;;;;;;;19.16;11.70;101111.00;4970989;28;20050;-68
2023/04/16 10:31:46;;;;;;;0.50;0.50;;;;;;;19.03;11.62;101107.03;4937111;28;20145;-68
2023/04/16 10:34:13;;;;;;;0.50;0.50;;;;;;;18.68;12.00;101111.94;4969383;28;20133;-68
2023/04/16 10:36:40;;;;;;;0.40;0.40;;;;;;;18.12;12.71;101111.53;4970052;28;20600;-68
2023/04/16 10:39:10;;;;;;;0.50;0.50;;;;;;;18.06;12.69;101105.25;4969324;28;20074;-68
2023/04/16 10:41:37;;;;;;;0.60;0.60;;;;;;;18.40;12.25;101108.97;4952648;28;20496;-68
2023/04/16 10:44:05;;;;;;;1.00;1.00;;;;;;;18.83;11.87;101102.63;4969460;28;20077;-68
2023/04/16 10:46:37;;;;;;;1.10;1.10;;;;;;;19.91;11.45;101101.97;4951329;28;20058;-67
2023/04/16 10:49:13;;;;;;;1.10;1.10;;;;;;;21.62;10.92;101099.03;4968487;28;20537;-68
2023/04/16 10:51:40;;;;;;;1.00;1.00;;;;;;;22.35;10.19;101081.16;4935896;28;20430;-68
2023/04/16 10:54:20;;;;;;;1.20;1.20;;;;;;;21.92;10.05;101091.03;4968021;28;20583;-68
2023/04/16 10:56:46;;;;;;;1.00;1.00;;;;;;;22.21;9.92;101091.59;4952846;28;20047;-68
2023/04/16 10:59:16;;;;;;;0.70;0.70;;;;;;;21.74;9.96;101100.44;4952847;28;20534;-68
2023/04/16 11:01:45;;;;;;;1.30;1.20;;;;;;;20.60;10.49;101098.38;4970131;28;20047;-67
2023/04/16 11:04:34;;;;;;;1.20;1.20;;;;;;;20.42;10.89;101099.34;4969608;28;20058;-68
2023/04/16 11:07:15;;;;;;;1.25;1.15;;;;;;;20.59;10.84;101101.44;4952927;28;20114;-68
2023/04/16 11:09:45;;;;;;;1.10;1.10;;;;;;;20.94;10.45;101102.63;4969881;28;20051;-68
2023/04/16 11:12:13;;;;;;;1.40;1.30;;;;;;;21.90;10.42;101086.91;4970155;28;20105;-68
2023/04/16 11:14:39;;;;;;;1.30;1.20;;;;;;;22.61;9.77;101099.09;4967375;28;20058;-68
2023/04/16 11:17:07;;;;;;;1.30;1.20;;;;;;;22.91;9.97;101074.19;4950107;28;20049;-68
2023/04/16 11:19:35;;;;;;;1.40;1.30;;;;;;;23.55;9.46;101083.00;4950781;28;20050;-68
2023/04/16 11:22:01;;;;;;;1.40;1.30;;;;;;;23.91;9.33;101079.78;4969857;28;20106;-69
2023/04/16 11:24:29;;;;;;;1.30;1.20;;;;;;;24.33;9.04;101081.06;4952111;28;20117;-70
2023/04/16 11:26:55;;;;;;;1.40;1.30;;;;;;;24.43;9.10;101077.88;4971440;28;20102;-70
2023/04/16 11:29:22;;;;;;;1.00;1.00;;;;;;;23.49;9.15;101071.22;4937554;28;20047;-71
2023/04/16 11:31:50;;;;;;;0.60;0.60;;;;;;;21.59;10.07;101073.78;4965962;28;20055;-70